Townville, South Carolina
Current Conditions -  °F | °C
As of 11:54 PM on Friday 21 Nov 2014 (Local Time) from KCEU Reporting Station
Clear Clear  
Wind Chill: 42°   Ceiling: Unl
Heat Index: 44°   Visibility: 10mi
Dew Point: 24°   Wind: 5mph
Humidity: 45%   Direction: 30°NNE
Pressure: 30.49"   Gusts: NA
Location:  34.56°N, 82.9°W
Report Text: KCEU 220454Z AUTO 03004KT 10SM CLR 07/M04 A3049 RMK AO2 SLP323 T00671044 401890056
Loading
Personal Weather Stations






























Interactive Weather Map New forecast layout! Learn more

10-Day Weather Forecast

Advertisements
Track Severe Weather on mobile